Time;durP1;ratioP1;P1;durP2;ratioP2;P2;SDS_P1;SDS_P2;PMS_P1;PMS_P2;Temp;Humidity;BMP_temperature;BMP_pressure;BME280_temperature;BME280_humidity;BME280_pressure;Samples;Min_cycle;Max_cycle;Signal;HPM_P1;HPM_P2
2023/06/05 00:01:00;;;;;;;4.18;1.80;;;17.40;66.10;;;;;;5112934;28;20039;-85
2023/06/05 00:03:26;;;;;;;2.80;1.70;;;17.40;66.20;;;;;;5112633;28;20122;-85
2023/06/05 00:05:52;;;;;;;6.35;1.77;;;17.40;66.90;;;;;;5115241;28;20062;-84
2023/06/05 00:08:18;;;;;;;4.05;1.65;;;17.30;67.10;;;;;;5116513;28;20019;-86
2023/06/05 00:10:43;;;;;;;3.00;1.42;;;17.30;67.20;;;;;;5118313;28;20032;-84
2023/06/05 00:13:09;;;;;;;5.55;1.70;;;17.10;67.80;;;;;;5116021;28;20050;-85
2023/06/05 00:15:37;;;;;;;5.20;1.45;;;17.10;68.10;;;;;;5116508;28;20070;-85
2023/06/05 00:18:03;;;;;;;3.17;1.90;;;17.10;68.10;;;;;;5117155;28;20019;-87
2023/06/05 00:20:29;;;;;;;3.88;1.60;;;17.10;68.30;;;;;;5117065;28;20468;-86
2023/06/05 00:22:55;;;;;;;3.22;1.63;;;17.10;68.40;;;;;;5117279;28;20039;-85
2023/06/05 00:25:21;;;;;;;3.30;1.40;;;17.10;69.00;;;;;;5117707;28;20030;-85
2023/06/05 00:27:46;;;;;;;2.67;1.48;;;17.00;69.40;;;;;;5116552;28;20034;-85
2023/06/05 00:30:13;;;;;;;4.10;1.60;;;17.00;69.60;;;;;;5115726;28;20024;-85
2023/06/05 00:32:39;;;;;;;2.88;1.80;;;16.90;69.90;;;;;;5116236;28;20023;-85
2023/06/05 00:35:06;;;;;;;3.72;1.60;;;16.90;70.50;;;;;;5116317;28;20076;-88
2023/06/05 00:37:33;;;;;;;4.03;1.63;;;16.80;70.90;;;;;;5116309;28;20062;-88
2023/06/05 00:39:59;;;;;;;4.18;1.40;;;16.90;70.90;;;;;;5122025;28;20023;-86
2023/06/05 00:42:26;;;;;;;3.67;1.42;;;16.80;71.10;;;;;;5126749;28;20032;-86
2023/06/05 00:44:52;;;;;;;4.20;2.05;;;16.90;71.20;;;;;;5127194;28;20103;-88
2023/06/05 00:47:18;;;;;;;3.80;1.60;;;16.80;71.50;;;;;;5115487;28;20080;-86
2023/06/05 00:49:44;;;;;;;3.28;1.50;;;16.70;71.60;;;;;;5117210;28;20073;-87
2023/06/05 00:52:10;;;;;;;3.08;1.88;;;16.70;72.00;;;;;;5115285;28;20032;-86
2023/06/05 00:54:36;;;;;;;3.50;1.65;;;16.70;72.40;;;;;;5107341;28;20031;-87
2023/06/05 00:57:02;;;;;;;2.25;1.58;;;16.80;71.80;;;;;;5116562;28;20026;-87
2023/06/05 00:59:31;;;;;;;3.35;1.73;;;16.80;71.60;;;;;;5115225;28;20424;-87
2023/06/05 01:01:58;;;;;;;2.30;1.70;;;16.90;70.80;;;;;;5102223;28;20051;-86
2023/06/05 01:04:23;;;;;;;2.88;1.50;;;16.90;70.80;;;;;;5094959;28;20054;-86
2023/06/05 01:06:51;;;;;;;3.97;1.67;;;16.90;70.10;;;;;;5096074;28;20024;-87
2023/06/05 01:09:18;;;;;;;3.70;1.40;;;16.90;70.00;;;;;;5094741;28;20020;-87
2023/06/05 01:11:58;;;;;;;2.25;1.48;;;16.90;70.30;;;;;;5096290;28;20024;-86
2023/06/05 01:14:35;;;;;;;3.15;1.63;;;16.80;70.30;;;;;;5094567;28;20043;-84
2023/06/05 01:17:03;;;;;;;1.92;1.40;;;16.90;70.00;;;;;;5095798;28;20475;-85
2023/06/05 01:19:31;;;;;;;6.15;1.60;;;16.90;70.60;;;;;;5094580;28;20031;-85
2023/06/05 01:22:00;;;;;;;2.92;1.65;;;16.90;70.50;;;;;;5094763;28;20078;-85
2023/06/05 01:24:27;;;;;;;2.80;1.35;;;16.90;69.70;;;;;;5112748;28;20198;-85
2023/06/05 01:27:00;;;;;;;2.65;1.40;;;16.90;69.40;;;;;;5115550;28;20081;-86
2023/06/05 01:29:55;;;;;;;4.28;1.35;;;16.90;69.00;;;;;;5115157;28;20284;-87
2023/06/05 01:32:29;;;;;;;2.38;1.30;;;16.90;68.70;;;;;;5109010;28;20040;-86
2023/06/05 01:34:55;;;;;;;1.90;1.30;;;16.80;68.40;;;;;;5115626;28;20464;-86
2023/06/05 01:37:24;;;;;;;3.60;1.30;;;16.70;68.60;;;;;;5114836;28;20023;-87
2023/06/05 01:39:51;;;;;;;4.85;1.40;;;16.70;68.50;;;;;;5115044;28;20118;-87
2023/06/05 01:42:18;;;;;;;4.70;1.67;;;16.70;68.50;;;;;;5111854;28;20139;-87
2023/06/05 01:44:45;;;;;;;3.55;1.75;;;16.70;68.60;;;;;;5114541;28;20058;-87
2023/06/05 01:47:11;;;;;;;2.22;1.52;;;16.60;68.50;;;;;;5115426;28;20023;-86
2023/06/05 01:49:37;;;;;;;2.70;1.45;;;16.60;68.70;;;;;;5115146;28;20051;-86
2023/06/05 01:52:02;;;;;;;2.05;1.50;;;16.60;68.70;;;;;;5114597;28;20388;-85
2023/06/05 01:54:28;;;;;;;2.60;1.63;;;16.60;69.20;;;;;;5114317;28;20392;-83
2023/06/05 01:56:55;;;;;;;2.88;1.45;;;16.50;69.50;;;;;;5114578;28;20143;-85
2023/06/05 01:59:21;;;;;;;3.92;1.67;;;16.50;70.00;;;;;;5115014;28;20019;-85
2023/06/05 02:01:47;;;;;;;3.03;2.03;;;16.50;70.70;;;;;;5115329;28;20028;-84
2023/06/05 02:04:18;;;;;;;4.00;1.40;;;16.40;71.00;;;;;;5115113;28;20020;-85
2023/06/05 02:06:44;;;;;;;4.35;1.85;;;16.40;71.40;;;;;;5115534;28;20020;-84
2023/06/05 02:09:10;;;;;;;4.97;1.63;;;16.30;71.80;;;;;;5114143;28;20084;-85
2023/06/05 02:11:37;;;;;;;3.65;1.80;;;16.40;71.70;;;;;;5102010;28;20032;-84
2023/06/05 02:14:05;;;;;;;3.17;2.08;;;16.40;71.40;;;;;;5115980;28;20062;-84
2023/06/05 02:16:31;;;;;;;2.50;1.73;;;16.40;71.50;;;;;;5115395;28;20024;-85
2023/06/05 02:19:03;;;;;;;6.70;2.00;;;16.30;71.40;;;;;;5103973;28;20111;-84
2023/06/05 02:21:32;;;;;;;4.05;2.13;;;16.30;71.10;;;;;;5094365;28;20356;-85
2023/06/05 02:24:02;;;;;;;4.55;1.88;;;16.20;71.10;;;;;;5094474;28;20560;-85
2023/06/05 02:26:28;;;;;;;2.80;1.90;;;16.20;70.90;;;;;;5093521;28;20025;-85
2023/06/05 02:28:54;;;;;;;3.28;2.00;;;16.20;72.00;;;;;;5094969;28;20031;-84
2023/06/05 02:31:24;;;;;;;2.83;1.80;;;16.20;71.10;;;;;;5093480;28;20031;-85
2023/06/05 02:33:53;;;;;;;3.17;1.63;;;16.20;70.80;;;;;;5094907;28;20069;-85
2023/06/05 02:36:19;;;;;;;2.55;1.60;;;16.20;70.60;;;;;;5093333;28;20065;-85
2023/06/05 02:38:45;;;;;;;6.22;1.73;;;16.20;70.40;;;;;;5093832;28;20489;-84
2023/06/05 02:41:11;;;;;;;3.17;1.67;;;16.10;70.30;;;;;;5092648;28;20136;-85
2023/06/05 02:43:37;;;;;;;3.65;1.48;;;16.00;70.50;;;;;;5093858;28;20058;-84
2023/06/05 02:46:02;;;;;;;2.38;1.35;;;16.10;70.10;;;;;;5093863;28;20028;-84
2023/06/05 02:48:28;;;;;;;3.95;1.55;;;16.10;69.90;;;;;;5094001;28;20030;-83
2023/06/05 02:50:53;;;;;;;1.92;1.38;;;16.00;70.00;;;;;;5094319;28;20054;-84
2023/06/05 02:53:20;;;;;;;5.97;1.60;;;16.00;69.90;;;;;;5092981;28;20032;-85
2023/06/05 02:55:46;;;;;;;2.03;1.35;;;16.00;70.50;;;;;;5094299;28;20057;-85
2023/06/05 02:58:17;;;;;;;3.30;1.27;;;15.90;69.50;;;;;;5094175;28;20115;-84
2023/06/05 03:00:44;;;;;;;2.15;1.42;;;15.90;69.70;;;;;;5105389;28;20055;-84
2023/06/05 03:03:16;;;;;;;2.08;1.20;;;15.90;70.10;;;;;;5113557;28;20039;-84
2023/06/05 03:05:42;;;;;;;3.42;1.50;;;15.60;70.90;;;;;;5113646;28;20108;-84
2023/06/05 03:08:08;;;;;;;5.97;1.65;;;15.60;71.40;;;;;;5113965;28;20028;-85
2023/06/05 03:10:34;;;;;;;2.58;1.65;;;15.50;71.30;;;;;;5114073;28;20399;-84
2023/06/05 03:13:00;;;;;;;2.42;1.10;;;15.50;71.40;;;;;;5114325;28;20127;-84
2023/06/05 03:15:25;;;;;;;3.90;1.25;;;15.50;71.00;;;;;;5113995;28;20084;-84
2023/06/05 03:17:51;;;;;;;2.65;1.20;;;15.50;70.30;;;;;;5114267;28;20413;-84
2023/06/05 03:20:18;;;;;;;4.45;1.20;;;15.60;70.10;;;;;;5115441;28;20031;-85
2023/06/05 03:22:43;;;;;;;4.47;1.50;;;15.50;69.90;;;;;;5108443;28;20119;-84
2023/06/05 03:25:09;;;;;;;2.70;1.60;;;15.60;70.00;;;;;;5097723;28;20062;-83
2023/06/05 03:27:36;;;;;;;2.25;1.17;;;15.40;70.70;;;;;;5114599;28;20028;-84
2023/06/05 03:30:02;;;;;;;2.13;1.15;;;15.20;71.40;;;;;;5115375;28;20102;-84
2023/06/05 03:32:28;;;;;;;2.55;1.30;;;15.30;71.30;;;;;;5113316;28;20031;-84
2023/06/05 03:34:53;;;;;;;2.22;1.20;;;15.30;71.00;;;;;;5113967;28;20073;-85
2023/06/05 03:37:19;;;;;;;3.17;1.05;;;15.30;70.50;;;;;;5113950;28;20062;-84
2023/06/05 03:39:44;;;;;;;4.20;1.40;;;15.20;70.30;;;;;;5094986;28;20381;-84
2023/06/05 03:42:11;;;;;;;1.98;1.20;;;15.30;70.10;;;;;;5096096;28;20094;-84
2023/06/05 03:44:37;;;;;;;2.67;1.35;;;15.30;70.20;;;;;;5096294;28;20035;-84
2023/06/05 03:47:03;;;;;;;1.55;1.13;;;15.30;70.10;;;;;;5096962;28;20028;-85
2023/06/05 03:49:29;;;;;;;1.67;1.10;;;15.20;71.20;;;;;;5096261;28;20024;-84
2023/06/05 03:52:00;;;;;;;3.35;1.20;;;15.10;71.10;;;;;;5096533;28;20032;-84
2023/06/05 03:54:27;;;;;;;1.58;1.10;;;15.10;70.90;;;;;;5096103;28;20593;-84
2023/06/05 03:56:55;;;;;;;2.80;1.35;;;15.10;70.90;;;;;;5096455;28;20028;-84
2023/06/05 03:59:23;;;;;;;4.00;1.35;;;15.20;70.90;;;;;;5096140;28;20544;-84
2023/06/05 04:01:49;;;;;;;3.80;1.30;;;15.10;71.00;;;;;;5116015;28;20039;-84
2023/06/05 04:04:16;;;;;;;3.30;1.27;;;15.00;72.00;;;;;;5101338;28;20039;-83
2023/06/05 04:06:41;;;;;;;2.78;1.40;;;15.00;72.80;;;;;;5098493;28;20020;-84
2023/06/05 04:09:11;;;;;;;3.33;1.40;;;15.00;72.30;;;;;;5096917;28;20024;-86
2023/06/05 04:11:42;;;;;;;3.55;1.33;;;15.00;72.10;;;;;;5096511;28;20055;-86
2023/06/05 04:14:11;;;;;;;10.57;1.40;;;15.10;72.10;;;;;;5096623;28;20031;-85
2023/06/05 04:16:38;;;;;;;4.28;1.10;;;15.10;72.00;;;;;;5095957;28;20027;-84
2023/06/05 04:19:09;;;;;;;4.60;1.15;;;15.10;72.10;;;;;;5096348;28;20027;-84
2023/06/05 04:21:36;;;;;;;2.15;1.40;;;15.10;72.20;;;;;;5097304;28;20024;-85
2023/06/05 04:24:06;;;;;;;2.58;1.45;;;15.00;72.40;;;;;;5096280;28;20036;-85
2023/06/05 04:26:33;;;;;;;2.65;1.00;;;15.00;72.70;;;;;;5096533;28;20044;-85
2023/06/05 04:28:59;;;;;;;1.85;0.98;;;15.00;72.80;;;;;;5097288;28;20027;-85
2023/06/05 04:31:25;;;;;;;3.33;1.23;;;14.90;73.20;;;;;;5095364;28;20027;-85
2023/06/05 04:33:50;;;;;;;2.40;1.30;;;14.90;73.60;;;;;;5096912;28;20024;-85
2023/06/05 04:36:17;;;;;;;2.13;1.17;;;14.90;73.70;;;;;;5096793;28;20534;-85
2023/06/05 04:38:44;;;;;;;2.17;1.40;;;14.90;74.00;;;;;;5100284;28;20114;-86
2023/06/05 04:41:10;;;;;;;1.75;1.27;;;14.90;74.30;;;;;;5095515;28;20048;-83
2023/06/05 04:43:36;;;;;;;2.35;1.30;;;14.90;74.80;;;;;;5095224;28;20039;-84
2023/06/05 04:46:02;;;;;;;3.33;1.42;;;15.10;74.80;;;;;;5096817;28;20028;-84
2023/06/05 04:48:28;;;;;;;4.00;1.20;;;15.00;74.80;;;;;;5095380;28;20024;-84
2023/06/05 04:50:55;;;;;;;2.42;1.38;;;15.10;74.50;;;;;;5095337;28;20066;-84
2023/06/05 04:53:21;;;;;;;1.83;1.40;;;15.20;74.40;;;;;;5094777;28;20032;-84
2023/06/05 04:55:48;;;;;;;3.67;1.40;;;15.10;75.00;;;;;;5095190;28;20051;-83
2023/06/05 04:58:15;;;;;;;3.40;1.40;;;15.20;74.30;;;;;;5095380;28;20024;-84
2023/06/05 05:00:44;;;;;;;4.47;1.40;;;15.20;74.50;;;;;;5101224;28;20023;-83
2023/06/05 05:03:13;;;;;;;2.70;1.25;;;15.30;73.70;;;;;;5116937;28;20031;-84
2023/06/05 05:05:39;;;;;;;5.15;1.35;;;15.30;74.50;;;;;;5115076;28;20026;-84
2023/06/05 05:08:05;;;;;;;4.10;1.55;;;15.30;73.60;;;;;;5115281;28;20024;-85
2023/06/05 05:10:31;;;;;;;4.22;1.38;;;15.20;74.50;;;;;;5115378;28;20205;-84
2023/06/05 05:12:56;;;;;;;2.85;1.38;;;15.40;74.30;;;;;;5116863;28;20059;-84
2023/06/05 05:15:22;;;;;;;3.35;1.40;;;15.40;73.20;;;;;;5115177;28;20030;-85
2023/06/05 05:17:49;;;;;;;2.45;1.40;;;15.40;73.20;;;;;;5115930;28;20460;-85
2023/06/05 05:20:15;;;;;;;3.45;1.40;;;15.50;72.50;;;;;;5114261;28;20028;-85
2023/06/05 05:22:40;;;;;;;2.03;1.20;;;15.50;72.10;;;;;;5100928;28;20036;-86
2023/06/05 05:25:06;;;;;;;3.83;1.70;;;15.50;72.10;;;;;;5095187;28;20374;-85
2023/06/05 05:27:32;;;;;;;2.78;1.45;;;15.60;72.30;;;;;;5095017;28;20030;-84
2023/06/05 05:29:57;;;;;;;2.85;1.33;;;15.60;72.20;;;;;;5095405;28;20024;-85
2023/06/05 05:32:23;;;;;;;3.50;1.42;;;15.60;72.30;;;;;;5094500;28;20051;-85
2023/06/05 05:34:50;;;;;;;6.90;1.60;;;15.70;72.40;;;;;;5096516;28;20031;-85
2023/06/05 05:37:16;;;;;;;2.55;1.00;;;15.70;72.30;;;;;;5095964;28;20556;-85
2023/06/05 05:39:41;;;;;;;4.07;1.25;;;15.80;72.70;;;;;;5096251;28;20056;-85
2023/06/05 05:42:07;;;;;;;4.85;1.33;;;15.90;72.70;;;;;;5096584;28;20047;-84
2023/06/05 05:44:33;;;;;;;7.25;1.65;;;15.90;72.20;;;;;;5095401;28;20056;-83
2023/06/05 05:46:58;;;;;;;3.10;1.40;;;15.90;72.20;;;;;;5093933;28;20058;-82
2023/06/05 05:49:24;;;;;;;3.63;1.30;;;16.10;72.10;;;;;;5095160;28;20032;-82
2023/06/05 05:51:50;;;;;;;2.85;1.50;;;16.10;72.30;;;;;;5110951;28;20457;-83
2023/06/05 05:54:16;;;;;;;2.63;1.40;;;16.10;72.60;;;;;;5114426;28;20031;-82
2023/06/05 05:56:42;;;;;;;4.97;1.45;;;16.20;71.80;;;;;;5114205;28;20787;-84
2023/06/05 05:59:08;;;;;;;3.20;1.10;;;16.20;71.90;;;;;;5115042;28;20034;-85
2023/06/05 06:01:33;;;;;;;2.05;1.30;;;16.20;71.50;;;;;;5114334;28;20020;-84
2023/06/05 06:03:59;;;;;;;3.15;1.30;;;16.30;71.20;;;;;;5115213;28;20024;-89
2023/06/05 06:06:25;;;;;;;3.08;1.83;;;16.30;71.70;;;;;;5114557;28;20028;-85
2023/06/05 06:08:52;;;;;;;3.05;1.48;;;16.40;71.70;;;;;;5115470;28;20020;-85
2023/06/05 06:11:17;;;;;;;3.10;1.40;;;16.40;71.50;;;;;;5114497;28;20056;-85
2023/06/05 06:13:43;;;;;;;4.18;1.20;;;16.50;71.20;;;;;;5113850;28;20641;-85
2023/06/05 06:16:09;;;;;;;3.70;1.10;;;16.50;71.10;;;;;;5114248;28;20019;-84
2023/06/05 06:18:35;;;;;;;5.88;1.50;;;16.50;70.30;;;;;;5114027;28;20023;-86
2023/06/05 06:21:01;;;;;;;2.72;1.30;;;16.60;70.50;;;;;;5114335;28;20024;-85
2023/06/05 06:23:26;;;;;;;3.00;1.33;;;16.70;70.60;;;;;;5113847;28;20396;-84
2023/06/05 06:25:52;;;;;;;2.30;1.40;;;16.70;70.10;;;;;;5114482;28;20069;-84
2023/06/05 06:28:19;;;;;;;2.33;1.17;;;16.70;68.90;;;;;;5114124;28;20085;-85
2023/06/05 06:30:45;;;;;;;1.63;1.05;;;16.80;68.90;;;;;;5113547;28;20104;-85
2023/06/05 06:33:10;;;;;;;3.10;1.30;;;16.90;68.30;;;;;;5113809;28;20027;-86
2023/06/05 06:35:36;;;;;;;1.88;1.20;;;16.90;68.30;;;;;;5114171;28;20069;-85
2023/06/05 06:38:02;;;;;;;3.08;1.17;;;17.00;68.20;;;;;;5114937;28;20059;-87
2023/06/05 06:40:28;;;;;;;2.15;1.30;;;17.00;68.30;;;;;;5113025;28;20086;-82
2023/06/05 06:42:55;;;;;;;7.10;1.40;;;17.10;68.30;;;;;;5113725;28;20115;-82
2023/06/05 06:45:21;;;;;;;2.60;1.15;;;17.20;68.90;;;;;;5113621;28;20020;-82
2023/06/05 06:47:47;;;;;;;2.58;1.55;;;17.20;67.90;;;;;;5112927;28;20022;-82
2023/06/05 06:50:14;;;;;;;1.42;0.95;;;17.20;68.50;;;;;;5113310;28;20026;-81
2023/06/05 06:52:39;;;;;;;1.75;1.15;;;17.30;68.20;;;;;;5112463;28;20036;-82
2023/06/05 06:55:06;;;;;;;1.55;1.08;;;17.40;68.30;;;;;;5113373;28;20036;-82
2023/06/05 06:57:32;;;;;;;1.70;1.00;;;17.40;68.60;;;;;;5113025;28;20024;-82
2023/06/05 06:59:57;;;;;;;3.25;1.17;;;17.50;68.20;;;;;;5113491;28;20035;-87
2023/06/05 07:02:25;;;;;;;2.15;1.10;;;17.50;67.70;;;;;;5113038;28;20143;-88
2023/06/05 07:04:53;;;;;;;2.25;1.20;;;17.60;68.20;;;;;;5114162;28;20027;-88
2023/06/05 07:07:21;;;;;;;2.58;1.20;;;17.60;68.10;;;;;;5114573;28;20023;-88
2023/06/05 07:09:48;;;;;;;2.65;1.10;;;17.60;68.20;;;;;;5112735;28;20024;-88
2023/06/05 07:12:16;;;;;;;2.35;1.00;;;17.70;68.10;;;;;;5113044;28;20024;-87
2023/06/05 07:14:42;;;;;;;2.95;1.05;;;17.70;67.60;;;;;;5114231;28;20076;-86
2023/06/05 07:17:08;;;;;;;2.63;0.98;;;17.80;67.40;;;;;;5118489;28;20028;-85
2023/06/05 07:19:37;;;;;;;1.60;1.10;;;17.80;67.90;;;;;;5116984;28;20023;-86
2023/06/05 07:22:04;;;;;;;3.00;1.08;;;17.90;67.20;;;;;;5117013;28;20042;-84
2023/06/05 07:24:31;;;;;;;2.85;1.45;;;18.00;67.10;;;;;;5116986;28;20032;-84
2023/06/05 07:27:02;;;;;;;2.55;1.10;;;18.00;66.70;;;;;;5117420;28;20034;-84
2023/06/05 07:29:27;;;;;;;4.03;1.00;;;18.10;66.40;;;;;;5117463;28;20051;-85
2023/06/05 07:31:54;;;;;;;2.28;1.20;;;18.10;66.30;;;;;;5116879;28;20263;-84
2023/06/05 07:34:21;;;;;;;5.20;1.27;;;18.20;66.40;;;;;;5118017;28;20091;-84
2023/06/05 07:36:48;;;;;;;4.55;1.20;;;18.20;66.30;;;;;;5117739;28;20051;-85
2023/06/05 07:39:15;;;;;;;3.85;1.00;;;18.20;66.70;;;;;;5118070;28;20028;-86
2023/06/05 07:41:40;;;;;;;2.40;1.30;;;18.20;66.70;;;;;;5116190;28;20503;-85
2023/06/05 07:44:08;;;;;;;1.92;1.10;;;18.30;67.00;;;;;;5117239;28;20028;-86
2023/06/05 07:46:34;;;;;;;1.58;1.25;;;18.30;66.50;;;;;;5102016;28;20099;-84
2023/06/05 07:49:00;;;;;;;4.88;1.20;;;18.30;66.60;;;;;;5111654;28;20034;-86
2023/06/05 07:51:26;;;;;;;2.55;1.13;;;18.30;66.30;;;;;;5116171;28;20396;-87
2023/06/05 07:53:51;;;;;;;3.45;1.10;;;18.40;65.90;;;;;;5115956;28;20019;-86
2023/06/05 07:56:17;;;;;;;2.35;1.10;;;18.40;65.80;;;;;;5117468;28;20027;-83
2023/06/05 07:58:43;;;;;;;2.45;0.90;;;18.50;66.10;;;;;;5115896;28;20023;-84
2023/06/05 08:01:11;;;;;;;4.68;1.15;;;18.60;66.00;;;;;;5113968;28;20020;-87
2023/06/05 08:03:37;;;;;;;3.88;1.10;;;18.60;65.90;;;;;;5110704;27;20036;-88
2023/06/05 08:06:03;;;;;;;2.55;1.08;;;18.70;66.10;;;;;;5115660;28;20077;-86
2023/06/05 08:08:29;;;;;;;3.40;1.00;;;18.80;65.40;;;;;;5116595;28;20084;-86
2023/06/05 08:10:55;;;;;;;2.40;1.20;;;18.70;64.70;;;;;;5116503;28;20027;-83
2023/06/05 08:13:21;;;;;;;1.88;1.20;;;18.80;65.20;;;;;;5120627;27;20387;-83
2023/06/05 08:15:47;;;;;;;2.65;1.25;;;18.80;65.10;;;;;;5122458;27;20028;-84
2023/06/05 08:18:14;;;;;;;1.75;1.02;;;18.80;65.40;;;;;;5116016;28;20091;-85
2023/06/05 08:20:40;;;;;;;1.60;1.08;;;18.90;65.80;;;;;;5115584;27;20047;-86
2023/06/05 08:23:05;;;;;;;3.42;1.27;;;19.00;65.80;;;;;;5115383;27;20377;-84
2023/06/05 08:25:31;;;;;;;3.83;1.17;;;19.00;65.80;;;;;;5114993;28;20515;-84
2023/06/05 08:27:56;;;;;;;2.65;1.27;;;19.10;65.30;;;;;;5119136;27;20153;-86
2023/06/05 08:30:22;;;;;;;3.20;1.20;;;19.20;64.90;;;;;;5116679;28;20422;-88
2023/06/05 08:32:48;;;;;;;6.05;1.50;;;19.20;64.70;;;;;;5114583;28;20027;-83
2023/06/05 08:35:13;;;;;;;3.20;1.23;;;19.20;64.10;;;;;;5116927;28;20024;-86
2023/06/05 08:37:40;;;;;;;2.45;1.15;;;19.30;65.00;;;;;;5115389;28;20468;-86
2023/06/05 08:40:08;;;;;;;1.67;1.17;;;19.30;64.90;;;;;;5115910;28;20055;-87
2023/06/05 08:42:34;;;;;;;2.78;1.20;;;19.30;64.90;;;;;;5115624;28;20024;-85
2023/06/05 08:45:00;;;;;;;3.70;1.33;;;19.40;64.90;;;;;;5115566;28;20023;-86
2023/06/05 08:47:30;;;;;;;3.53;1.23;;;19.50;64.90;;;;;;5115936;28;20513;-91
2023/06/05 08:49:56;;;;;;;2.70;1.23;;;19.50;65.20;;;;;;5115501;28;20051;-88
2023/06/05 08:52:29;;;;;;;5.28;1.65;;;19.50;66.30;;;;;;5115967;28;20028;-90
2023/06/05 08:54:57;;;;;;;2.05;1.25;;;19.60;64.50;;;;;;5098926;28;20059;-87
2023/06/05 08:57:22;;;;;;;6.30;1.27;;;19.60;64.70;;;;;;5114960;27;20028;-89
2023/06/05 08:59:50;;;;;;;2.55;1.35;;;19.70;64.10;;;;;;5114720;27;20015;-89
2023/06/05 09:02:15;;;;;;;2.50;1.30;;;19.80;64.10;;;;;;5124519;27;20055;-89
2023/06/05 09:04:41;;;;;;;2.28;1.30;;;19.80;64.30;;;;;;5098590;28;20062;-88
2023/06/05 09:07:13;;;;;;;5.15;1.38;;;19.90;64.10;;;;;;5097323;28;20031;-89
2023/06/05 09:09:38;;;;;;;3.13;1.25;;;20.00;63.20;;;;;;5098311;28;20431;-87
2023/06/05 09:12:06;;;;;;;3.47;1.35;;;20.00;63.00;;;;;;5115166;28;20057;-83
2023/06/05 09:14:33;;;;;;;2.55;1.33;;;20.10;63.90;;;;;;5095265;28;20024;-88
2023/06/05 09:17:02;;;;;;;3.95;1.23;;;20.20;64.90;;;;;;5111884;28;20020;-87
2023/06/05 09:19:39;;;;;;;2.22;1.27;;;20.20;64.20;;;;;;5096244;28;20024;-88
2023/06/05 09:22:07;;;;;;;1.88;1.35;;;20.30;63.30;;;;;;5115759;28;20100;-88
2023/06/05 09:24:34;;;;;;;2.10;1.30;;;20.30;63.10;;;;;;5098990;28;20028;-88
2023/06/05 09:27:10;;;;;;;2.53;1.27;;;20.40;63.60;;;;;;5096005;28;20035;-88
2023/06/05 09:29:38;;;;;;;3.58;1.58;;;20.50;63.30;;;;;;5112836;28;20024;-87
2023/06/05 09:32:13;;;;;;;3.75;1.67;;;20.60;63.20;;;;;;5112963;28;20024;-88
2023/06/05 09:34:40;;;;;;;2.78;1.40;;;20.60;62.90;;;;;;5095633;28;20024;-88
2023/06/05 09:37:10;;;;;;;3.28;1.55;;;20.60;63.80;;;;;;5094632;28;20032;-90
2023/06/05 09:39:43;;;;;;;3.13;1.50;;;20.60;63.20;;;;;;5095079;28;20024;-88
2023/06/05 09:42:09;;;;;;;3.60;1.70;;;20.70;64.00;;;;;;5095550;28;20048;-89
2023/06/05 09:44:36;;;;;;;2.42;1.60;;;20.90;63.50;;;;;;5111436;28;20024;-85
2023/06/05 09:47:05;;;;;;;3.53;2.08;;;20.90;63.60;;;;;;5095248;28;20027;-88
2023/06/05 09:49:40;;;;;;;3.17;1.58;;;21.00;65.10;;;;;;5111663;28;20028;-88
2023/06/05 09:52:07;;;;;;;3.05;1.63;;;21.10;65.50;;;;;;5094321;28;20028;-89
2023/06/05 09:54:36;;;;;;;4.32;2.00;;;21.20;64.60;;;;;;5111425;28;20036;-89
2023/06/05 09:57:03;;;;;;;4.10;1.70;;;21.20;64.00;;;;;;5111449;28;20031;-89
2023/06/05 09:59:31;;;;;;;4.30;2.05;;;21.20;63.90;;;;;;5111093;28;20052;-89
2023/06/05 10:01:59;;;;;;;3.05;2.20;;;21.30;66.90;;;;;;5114812;27;20031;-87
2023/06/05 10:04:29;;;;;;;5.55;2.13;;;21.40;67.00;;;;;;5122103;27;20027;-87
2023/06/05 10:07:00;;;;;;;3.97;2.17;;;21.50;66.50;;;;;;5118715;27;20082;-87
2023/06/05 10:09:26;;;;;;;2.77;2.00;;;21.50;67.50;;;;;;5110891;28;20020;-87
2023/06/05 10:11:52;;;;;;;5.47;2.15;;;21.50;66.60;;;;;;5130052;27;20024;-90
2023/06/05 10:14:19;;;;;;;4.68;2.25;;;21.60;66.60;;;;;;5116515;27;20027;-88
2023/06/05 10:16:49;;;;;;;8.05;2.40;;;21.70;65.70;;;;;;5130687;27;20073;-88
2023/06/05 10:19:16;;;;;;;6.47;2.53;;;21.80;66.10;;;;;;5117233;27;20019;-87
2023/06/05 10:21:43;;;;;;;3.90;2.13;;;21.80;66.70;;;;;;5127350;27;20431;-87
2023/06/05 10:24:17;;;;;;;3.67;2.47;;;21.80;67.90;;;;;;5125198;27;20456;-86
2023/06/05 10:26:56;;;;;;;4.57;2.45;;;21.90;68.30;;;;;;5117655;27;20488;-87
2023/06/05 10:30:12;;;;;;;5.22;2.58;;;21.80;67.70;;;;;;5100386;28;20027;-87
2023/06/05 10:33:03;;;;;;;3.78;2.50;;;21.90;68.20;;;;;;5035664;28;20032;-85
2023/06/05 10:35:47;;;;;;;4.72;2.58;;;22.10;69.20;;;;;;5034783;28;20136;-85
2023/06/05 10:38:17;;;;;;;4.63;2.80;;;22.20;68.90;;;;;;5043204;28;20115;-86
2023/06/05 10:41:04;;;;;;;5.10;2.42;;;22.30;68.90;;;;;;5054658;28;20048;-86
2023/06/05 10:43:33;;;;;;;3.05;2.47;;;22.40;69.60;;;;;;5032366;28;20562;-87
2023/06/05 10:46:01;;;;;;;3.42;2.30;;;22.60;69.10;;;;;;5015331;28;20623;-86
2023/06/05 10:49:04;;;;;;;4.10;2.30;;;22.70;68.50;;;;;;5032505;28;20036;-87
2023/06/05 10:51:49;;;;;;;3.47;2.42;;;22.70;68.10;;;;;;5043662;28;20115;-87
2023/06/05 10:54:35;;;;;;;3.35;2.60;;;22.70;68.10;;;;;;5043671;28;20374;-87
2023/06/05 10:57:03;;;;;;;4.45;2.78;;;22.70;67.80;;;;;;5039995;28;20176;-88
2023/06/05 10:59:34;;;;;;;5.68;2.50;;;22.80;66.20;;;;;;5049874;28;20031;-88
2023/06/05 11:02:05;;;;;;;5.05;2.50;;;22.90;64.80;;;;;;5061026;28;20180;-88
2023/06/05 11:04:43;;;;;;;3.40;2.35;;;23.00;65.00;;;;;;5126108;28;20040;-87
2023/06/05 11:07:29;;;;;;;3.85;1.98;;;23.10;63.60;;;;;;5115949;28;20042;-87
2023/06/05 11:10:07;;;;;;;3.20;2.03;;;23.30;63.20;;;;;;5118534;28;20031;-86
2023/06/05 11:12:38;;;;;;;5.63;2.03;;;23.30;61.70;;;;;;5113253;28;20027;-89
2023/06/05 11:15:12;;;;;;;4.07;2.25;;;23.40;60.50;;;;;;5124719;28;20486;-89
2023/06/05 11:17:44;;;;;;;4.25;2.25;;;23.60;60.30;;;;;;5118358;28;20032;-88
2023/06/05 11:20:28;;;;;;;3.67;2.10;;;23.70;62.10;;;;;;5113590;28;20024;-87
2023/06/05 11:22:53;;;;;;;2.92;2.22;;;23.80;61.80;;;;;;5117388;28;20061;-86
2023/06/05 11:25:26;;;;;;;3.33;2.28;;;23.90;62.80;;;;;;5133196;28;20024;-86
2023/06/05 11:27:58;;;;;;;3.17;2.35;;;24.10;60.90;;;;;;5114436;28;20039;-85
2023/06/05 11:30:31;;;;;;;2.97;2.20;;;24.10;60.20;;;;;;5126250;28;20055;-85
2023/06/05 11:33:17;;;;;;;3.08;2.10;;;24.10;57.30;;;;;;5116388;28;20042;-84
2023/06/05 11:35:45;;;;;;;5.07;2.42;;;24.20;57.50;;;;;;5110335;28;20032;-85
2023/06/05 11:38:17;;;;;;;4.40;2.13;;;24.30;56.30;;;;;;5104802;28;20050;-86
2023/06/05 11:40:43;;;;;;;;;;;24.30;57.90;;;;;;5108849;28;20036;-85
2023/06/05 11:43:10;;;;;;;4.50;2.40;;;24.50;59.20;;;;;;5109362;28;19923;-85
2023/06/05 11:45:37;;;;;;;2.88;2.10;;;24.70;58.00;;;;;;5107886;28;20019;-85
2023/06/05 11:48:09;;;;;;;2.67;1.95;;;24.80;57.90;;;;;;5102729;28;20020;-85
2023/06/05 11:50:51;;;;;;;3.58;2.15;;;25.10;57.50;;;;;;5109213;28;20024;-85
2023/06/05 11:53:17;;;;;;;3.13;2.20;;;25.20;55.80;;;;;;5130024;28;20081;-89
2023/06/05 11:58:30;;;;;;;3.38;2.42;;;25.20;56.40;;;;;;5122678;28;20024;-85
2023/06/05 12:01:21;;;;;;;4.70;2.17;;;25.40;57.40;;;;;;5092397;28;20067;-85
2023/06/05 12:03:48;;;;;;;2.93;2.10;;;25.50;56.20;;;;;;5117950;27;20054;-85
2023/06/05 12:06:15;;;;;;;6.43;2.42;;;25.50;55.20;;;;;;5125980;27;20092;-86
2023/06/05 12:08:42;;;;;;;8.23;2.08;;;25.40;54.40;;;;;;5131369;27;20023;-81
2023/06/05 12:11:25;;;;;;;3.75;2.22;;;25.40;55.10;;;;;;5136575;27;20027;-85
2023/06/05 12:13:52;;;;;;;3.00;2.10;;;25.30;54.50;;;;;;5123296;27;20027;-84
2023/06/05 12:16:19;;;;;;;3.00;2.05;;;25.20;55.10;;;;;;5125299;27;20023;-84
2023/06/05 12:18:47;;;;;;;3.20;2.25;;;25.20;56.00;;;;;;5131059;27;20034;-84
2023/06/05 12:21:27;;;;;;;4.65;2.40;;;25.00;55.80;;;;;;5120416;27;20047;-84
2023/06/05 12:24:01;;;;;;;4.82;2.25;;;25.00;55.80;;;;;;5129028;27;20034;-84
2023/06/05 12:26:29;;;;;;;3.70;2.22;;;25.20;56.80;;;;;;5129085;27;20043;-84
2023/06/05 12:29:04;;;;;;;3.25;2.20;;;25.60;56.40;;;;;;5117551;27;20030;-84
2023/06/05 12:31:34;;;;;;;4.05;2.35;;;25.90;54.90;;;;;;5118745;27;20112;-86
2023/06/05 12:34:00;;;;;;;1.90;1.80;;;26.30;53.60;;;;;;5136992;27;20095;-86
2023/06/05 12:36:28;;;;;;;2.20;1.65;;;26.50;54.60;;;;;;5136421;27;20471;-84
2023/06/05 12:38:54;;;;;;;4.00;1.90;;;26.70;54.10;;;;;;5136146;27;20019;-85
2023/06/05 12:41:20;;;;;;;3.88;2.20;;;26.90;52.00;;;;;;5136071;27;20050;-85
2023/06/05 12:43:45;;;;;;;2.67;1.92;;;27.00;51.40;;;;;;5135924;27;20042;-84
2023/06/05 12:46:13;;;;;;;4.07;2.30;;;27.10;51.00;;;;;;5136239;27;20053;-86
2023/06/05 12:48:39;;;;;;;3.70;1.90;;;27.10;51.50;;;;;;5136419;27;20126;-84
2023/06/05 12:51:05;;;;;;;2.78;2.13;;;27.10;50.50;;;;;;5135675;27;20023;-84
2023/06/05 12:53:30;;;;;;;4.85;2.10;;;26.90;49.90;;;;;;5137310;27;20034;-84
2023/06/05 12:55:56;;;;;;;3.35;2.00;;;26.90;50.10;;;;;;5135518;27;20027;-84